createdAt,value
2023-05-01T00:00:41.707Z,99.99
2023-05-01T00:04:43.744Z,99.99
2023-05-01T00:08:45.380Z,99.99
2023-05-01T00:12:46.949Z,99.99
2023-05-01T00:16:48.635Z,99.99
2023-05-01T00:20:50.290Z,99.99
2023-05-01T00:24:52.224Z,99.99
2023-05-01T00:28:54.207Z,99.99
2023-05-01T00:32:56.001Z,99.99
2023-05-01T00:36:58.775Z,99.99
2023-05-01T00:41:00.458Z,99.99
2023-05-01T00:45:02.023Z,99.99
2023-05-01T00:49:04.276Z,99.99
2023-05-01T00:53:05.930Z,99.99
2023-05-01T00:57:09.557Z,99.99
2023-05-01T01:01:13.110Z,99.99
2023-05-01T01:05:14.787Z,99.99
2023-05-01T01:09:58.131Z,99.99
2023-05-01T01:14:11.554Z,99.99
2023-05-01T01:18:22.490Z,99.99
2023-05-01T01:22:26.970Z,99.99
2023-05-01T01:27:06.172Z,99.99
2023-05-01T01:31:30.959Z,99.99
2023-05-01T01:35:34.723Z,99.99
2023-05-01T01:39:58.841Z,99.99
2023-05-01T01:44:15.869Z,99.99
2023-05-01T01:48:26.361Z,99.99
2023-05-01T01:52:30.015Z,99.99
2023-05-01T01:56:34.396Z,99.99
2023-05-01T02:00:36.866Z,99.99
2023-05-01T02:04:39.766Z,99.99
2023-05-01T02:08:43.870Z,99.99
2023-05-01T02:12:48.131Z,99.99
2023-05-01T02:16:50.915Z,99.99
2023-05-01T02:20:53.315Z,99.99
2023-05-01T02:24:57.223Z,99.99
2023-05-01T02:28:59.351Z,99.99
2023-05-01T02:33:00.981Z,99.99
2023-05-01T02:37:05.852Z,99.99
2023-05-01T02:41:09.800Z,99.99
2023-05-01T02:45:19.144Z,99.99
2023-05-01T02:49:21.516Z,99.99
2023-05-01T02:53:23.227Z,99.99
2023-05-01T02:57:29.321Z,99.99
2023-05-01T03:01:30.982Z,99.99
2023-05-01T03:05:32.996Z,99.99
2023-05-01T03:09:34.674Z,99.99
2023-05-01T03:13:37.019Z,99.99
2023-05-01T03:17:38.683Z,99.99
2023-05-01T03:21:42.237Z,99.99
2023-05-01T03:25:43.797Z,99.99
2023-05-01T03:29:45.462Z,99.99
2023-05-01T03:33:47.078Z,99.99
2023-05-01T03:37:50.857Z,99.99
2023-05-01T03:42:12.345Z,99.99
2023-05-01T03:46:16.497Z,99.99
2023-05-01T03:50:18.747Z,99.99
2023-05-01T03:54:23.389Z,99.99
2023-05-01T03:58:33.869Z,99.99
2023-05-01T04:02:36.055Z,99.99
2023-05-01T04:06:38.064Z,99.99
2023-05-01T04:10:41.879Z,99.99
2023-05-01T04:14:44.414Z,99.99
2023-05-01T04:18:46.213Z,99.99
2023-05-01T04:22:48.114Z,99.99
2023-05-01T04:26:50.390Z,99.99
2023-05-01T04:30:52.135Z,99.99
2023-05-01T04:34:53.718Z,99.99
2023-05-01T04:38:56.381Z,99.99
2023-05-01T04:42:58.130Z,99.99
2023-05-01T04:47:02.864Z,99.99
2023-05-01T04:51:04.756Z,99.99
2023-05-01T04:55:09.573Z,99.99
2023-05-01T04:59:17.912Z,99.99
2023-05-01T05:03:19.873Z,99.99
2023-05-01T05:07:22.430Z,99.99
2023-05-01T05:11:59.082Z,99.99
2023-05-01T05:16:00.975Z,99.99
2023-05-01T05:20:03.564Z,99.99
2023-05-01T05:24:05.369Z,99.99
2023-05-01T05:28:07.704Z,99.99
2023-05-01T05:32:10.382Z,99.99
2023-05-01T05:36:12.352Z,99.99
2023-05-01T05:40:16.844Z,99.99
2023-05-01T05:44:28.874Z,99.99
2023-05-01T05:48:30.645Z,99.99
2023-05-01T05:52:32.737Z,99.99
2023-05-01T05:56:35.896Z,99.99
2023-05-01T06:00:37.686Z,99.99
2023-05-01T06:04:40.892Z,99.99
2023-05-01T06:08:45.376Z,99.99
2023-05-01T06:12:50.410Z,99.99
2023-05-01T06:16:56.565Z,99.99
2023-05-01T06:20:58.449Z,99.99
2023-05-01T06:25:00.688Z,99.99
2023-05-01T06:29:04.346Z,99.99
2023-05-01T06:33:06.473Z,99.99
2023-05-01T06:37:08.671Z,99.99
2023-05-01T06:41:10.361Z,99.99
2023-05-01T06:45:11.911Z,99.99
2023-05-01T06:49:13.553Z,99.99
2023-05-01T06:53:16.227Z,99.99
2023-05-01T06:57:17.791Z,99.99
2023-05-01T07:01:19.910Z,99.99
2023-05-01T07:05:22.339Z,99.99
2023-05-01T07:09:23.982Z,99.99
2023-05-01T07:13:26.891Z,99.99
2023-05-01T07:17:29.417Z,99.99
2023-05-01T07:21:32.170Z,99.99
2023-05-01T07:25:33.806Z,99.99
2023-05-01T07:29:36.902Z,99.99
2023-05-01T07:33:38.473Z,99.99
2023-05-01T07:37:40.044Z,99.99
2023-05-01T07:41:41.683Z,99.99
2023-05-01T07:45:55.604Z,99.99
2023-05-01T07:49:57.364Z,99.99
2023-05-01T07:54:04.170Z,99.99
2023-05-01T07:58:06.345Z,99.99
2023-05-01T08:02:08.005Z,99.99
2023-05-01T08:06:09.639Z,99.99
2023-05-01T08:10:11.212Z,99.99
2023-05-01T08:14:12.738Z,99.99
2023-05-01T08:18:20.222Z,99.99
2023-05-01T08:22:23.418Z,99.99
2023-05-01T08:26:25.088Z,99.99
2023-05-01T08:30:26.725Z,99.99
2023-05-01T08:34:28.352Z,99.99
2023-05-01T08:38:29.856Z,99.99
2023-05-01T08:42:32.419Z,99.99
2023-05-01T08:46:46.676Z,99.99
2023-05-01T08:50:49.445Z,99.99
2023-05-01T08:54:54.549Z,99.99
2023-05-01T08:58:58.387Z,99.99
2023-05-01T09:03:02.244Z,99.99
2023-05-01T09:07:04.861Z,99.99
2023-05-01T09:11:06.511Z,99.99
2023-05-01T09:15:09.641Z,99.99
2023-05-01T09:19:11.279Z,99.99
2023-05-01T09:23:13.090Z,99.99
2023-05-01T09:27:15.162Z,99.99
2023-05-01T09:31:28.451Z,99.99
2023-05-01T09:35:30.858Z,99.99
2023-05-01T09:39:32.746Z,99.99
2023-05-01T09:43:34.347Z,99.99
2023-05-01T09:47:36.248Z,99.99
2023-05-01T09:51:38.145Z,99.99
2023-05-01T09:55:39.755Z,99.99
2023-05-01T09:59:41.384Z,99.99
2023-05-01T10:03:44.804Z,99.99
2023-05-01T10:07:57.390Z,99.99
2023-05-01T10:11:59.426Z,99.99
2023-05-01T10:16:03.703Z,99.99
2023-05-01T10:20:09.269Z,99.99
2023-05-01T10:24:11.307Z,99.99
2023-05-01T10:28:13.731Z,99.99
2023-05-01T10:32:15.777Z,99.99
2023-05-01T10:36:26.465Z,99.99
2023-05-01T10:40:40.235Z,99.99
2023-05-01T10:44:43.359Z,99.99
2023-05-01T10:48:44.959Z,99.99
2023-05-01T10:53:14.684Z,99.99
2023-05-01T10:57:43.754Z,99.99
2023-05-01T11:01:51.704Z,99.99
2023-05-01T11:05:59.611Z,99.99
2023-05-01T11:10:02.127Z,99.99
2023-05-01T11:14:08.558Z,99.99
2023-05-01T11:18:10.986Z,99.99
2023-05-01T11:22:13.571Z,99.99
2023-05-01T11:26:15.246Z,99.99
2023-05-01T11:30:17.464Z,99.99
2023-05-01T11:34:19.110Z,99.99
2023-05-01T11:38:21.252Z,99.99
2023-05-01T11:42:22.911Z,99.99
2023-05-01T11:46:29.233Z,99.99
2023-05-01T11:50:38.725Z,99.99
2023-05-01T11:54:48.109Z,99.99
2023-05-01T11:58:49.746Z,99.99
2023-05-01T12:03:06.355Z,99.99
2023-05-01T12:07:20.274Z,99.99
2023-05-01T12:11:23.293Z,99.99
2023-05-01T12:15:25.118Z,99.99
2023-05-01T12:19:26.967Z,99.99
2023-05-01T12:23:34.751Z,99.99
2023-05-01T12:27:45.515Z,99.99
2023-05-01T12:31:48.837Z,99.99
2023-05-01T12:35:50.780Z,99.99
2023-05-01T12:39:52.837Z,99.99
2023-05-01T12:43:54.440Z,99.99
2023-05-01T12:47:56.288Z,99.99
2023-05-01T12:52:00.383Z,99.99
2023-05-01T12:56:03.345Z,99.99
2023-05-01T13:00:05.241Z,99.99
2023-05-01T13:04:07.142Z,99.99
2023-05-01T13:08:08.767Z,99.99
2023-05-01T13:12:10.527Z,99.99
2023-05-01T13:16:16.554Z,99.99
2023-05-01T13:20:26.754Z,99.99
2023-05-01T13:24:42.150Z,99.99
2023-05-01T13:28:47.618Z,99.99
2023-05-01T13:32:49.678Z,99.99
2023-05-01T13:36:51.415Z,99.99
2023-05-01T13:40:52.951Z,99.99
2023-05-01T13:44:56.254Z,99.99
2023-05-01T13:49:03.570Z,99.99
2023-05-01T13:53:06.806Z,99.99
2023-05-01T13:57:09.193Z,99.99
2023-05-01T14:01:18.817Z,99.99
2023-05-01T14:05:28.205Z,99.99
2023-05-01T14:09:29.809Z,99.99
2023-05-01T14:13:31.876Z,99.99
2023-05-01T14:17:35.889Z,99.99
2023-05-01T14:21:42.017Z,99.99
2023-05-01T14:25:45.664Z,99.99
2023-05-01T14:29:47.430Z,99.99
2023-05-01T14:33:59.397Z,99.99
2023-05-01T14:38:08.900Z,99.75
2023-05-01T14:42:10.477Z,98.71
2023-05-01T14:46:13.431Z,98.26
2023-05-01T14:50:23.196Z,96.47
2023-05-01T14:54:24.779Z,96.91
2023-05-01T14:58:26.305Z,98.10
2023-05-01T15:02:28.506Z,98.35
2023-05-01T15:06:30.214Z,99.84
2023-05-01T15:10:32.386Z,99.99
2023-05-01T15:14:33.927Z,99.99
2023-05-01T15:18:36.509Z,99.99
2023-05-01T15:22:40.295Z,99.99
2023-05-01T15:26:42.599Z,99.99
2023-05-01T15:30:46.403Z,99.99
2023-05-01T15:34:50.040Z,99.99
2023-05-01T15:38:51.659Z,99.99
2023-05-01T15:42:53.338Z,99.99
2023-05-01T15:46:55.112Z,99.99
2023-05-01T15:50:56.815Z,99.98
2023-05-01T15:54:58.446Z,98.37
2023-05-01T15:59:03.045Z,95.62
2023-05-01T16:03:04.986Z,96.72
2023-05-01T16:07:08.823Z,96.62
2023-05-01T16:11:12.386Z,97.72
2023-05-01T16:15:14.837Z,97.57
2023-05-01T16:19:16.729Z,98.62
2023-05-01T16:23:18.329Z,99.22
2023-05-01T16:27:19.914Z,99.99
2023-05-01T16:31:27.673Z,99.99
2023-05-01T16:35:29.654Z,99.99
2023-05-01T16:39:31.202Z,99.99
2023-05-01T16:43:32.965Z,99.99
2023-05-01T16:47:34.677Z,99.99
2023-05-01T16:51:36.374Z,99.99
2023-05-01T16:55:38.068Z,99.99
2023-05-01T16:59:39.647Z,99.99
2023-05-01T17:03:41.458Z,99.99
2023-05-01T17:07:43.176Z,99.99
2023-05-01T17:11:44.762Z,99.99
2023-05-01T17:15:46.539Z,99.99
2023-05-01T17:19:48.459Z,99.99
2023-05-01T17:23:50.109Z,99.99
2023-05-01T17:27:51.702Z,99.99
2023-05-01T17:31:53.476Z,99.99
2023-05-01T17:35:56.649Z,99.99
2023-05-01T17:39:58.412Z,99.99
2023-05-01T17:44:00.086Z,99.99
2023-05-01T17:48:01.689Z,99.99
2023-05-01T17:52:03.605Z,99.99
2023-05-01T17:56:05.168Z,99.99
2023-05-01T18:00:11.712Z,99.99
2023-05-01T18:04:15.993Z,99.99
2023-05-01T18:08:17.721Z,99.99
2023-05-01T18:12:19.304Z,99.99
2023-05-01T18:16:22.648Z,99.99
2023-05-01T18:20:24.314Z,99.99
2023-05-01T18:24:26.277Z,99.99
2023-05-01T18:28:28.309Z,99.99
2023-05-01T18:32:43.355Z,99.99
2023-05-01T18:36:52.177Z,99.99
2023-05-01T18:40:54.127Z,99.99
2023-05-01T18:44:56.824Z,99.99
2023-05-01T18:48:59.826Z,99.99
2023-05-01T18:53:01.756Z,99.99
2023-05-01T18:57:03.434Z,99.99
2023-05-01T19:01:05.209Z,99.99
2023-05-01T19:05:08.771Z,99.99
2023-05-01T19:09:10.998Z,99.99
2023-05-01T19:13:12.867Z,99.99
2023-05-01T19:17:14.812Z,99.99
2023-05-01T19:21:16.634Z,99.99
2023-05-01T19:25:18.980Z,99.99
2023-05-01T19:29:20.624Z,99.99
2023-05-01T19:33:22.620Z,99.99
2023-05-01T19:37:24.232Z,99.99
2023-05-01T19:41:26.415Z,99.99
2023-05-01T19:45:28.116Z,99.99
2023-05-01T19:49:29.894Z,99.99
2023-05-01T19:53:31.750Z,99.99
2023-05-01T19:57:33.820Z,99.99
2023-05-01T20:01:36.890Z,99.99
2023-05-01T20:05:39.088Z,99.99
2023-05-01T20:09:40.803Z,99.99
2023-05-01T20:13:42.368Z,99.99
2023-05-01T20:17:44.339Z,99.99
2023-05-01T20:21:45.969Z,99.99
2023-05-01T20:25:48.418Z,99.99
2023-05-01T20:29:50.050Z,99.99
2023-05-01T20:33:51.668Z,99.99
2023-05-01T20:37:53.500Z,99.99
2023-05-01T20:41:56.144Z,99.99
2023-05-01T20:45:57.761Z,99.99
2023-05-01T20:50:00.303Z,99.99
2023-05-01T20:54:02.176Z,99.99
2023-05-01T20:58:03.918Z,99.99
2023-05-01T21:02:05.702Z,99.99
2023-05-01T21:06:07.377Z,99.99
2023-05-01T21:10:10.722Z,99.99
2023-05-01T21:14:12.433Z,99.99
2023-05-01T21:18:15.567Z,99.99
2023-05-01T21:22:23.685Z,99.99
2023-05-01T21:26:25.686Z,99.99
2023-05-01T21:30:33.012Z,99.99
2023-05-01T21:34:35.365Z,99.99
2023-05-01T21:38:37.145Z,99.99
2023-05-01T21:42:39.574Z,99.99
2023-05-01T21:46:42.161Z,99.99
2023-05-01T21:50:47.629Z,99.99
2023-05-01T21:54:49.388Z,99.99
2023-05-01T21:58:51.705Z,99.99
2023-05-01T22:02:53.879Z,99.99
2023-05-01T22:06:55.578Z,99.99
2023-05-01T22:10:57.337Z,99.99
2023-05-01T22:14:58.909Z,99.99
2023-05-01T22:19:00.520Z,99.99
2023-05-01T22:23:02.045Z,99.99
2023-05-01T22:27:03.662Z,99.99
2023-05-01T22:31:05.378Z,99.99
2023-05-01T22:35:08.389Z,99.99
2023-05-01T22:39:09.949Z,99.99
2023-05-01T22:43:11.619Z,99.99
2023-05-01T22:47:13.205Z,99.99
2023-05-01T22:51:14.808Z,99.99
2023-05-01T22:55:16.552Z,99.99
2023-05-01T22:59:19.014Z,99.99
2023-05-01T23:03:20.877Z,99.99
2023-05-01T23:07:22.523Z,99.99
2023-05-01T23:11:30.535Z,99.99
2023-05-01T23:15:32.758Z,99.99
2023-05-01T23:19:34.420Z,99.99
2023-05-01T23:23:36.205Z,99.99
2023-05-01T23:27:41.872Z,99.99
2023-05-01T23:31:47.610Z,99.99
2023-05-01T23:35:49.500Z,99.99
2023-05-01T23:39:53.534Z,99.99
2023-05-01T23:43:55.882Z,99.99
2023-05-01T23:47:58.583Z,99.99
2023-05-01T23:52:00.301Z,99.99
2023-05-01T23:56:02.226Z,99.99
